Time;durP1;ratioP1;P1;durP2;ratioP2;P2;SDS_P1;SDS_P2;PMS_P1;PMS_P2;Temp;Humidity;BMP_temperature;BMP_pressure;BME280_temperature;BME280_humidity;BME280_pressure;Samples;Min_cycle;Max_cycle;Signal;HPM_P1;HPM_P2
2023/07/09 00:01:39;;;;;;;;;;;;;;;27.19;36.88;100662.41;5056313;28;1083;-34
2023/07/09 00:04:05;;;;;;;;;;;;;;;27.54;35.78;100677.19;5056919;28;1114;-36
2023/07/09 00:06:30;;;;;;;;;;;;;;;27.80;35.39;100660.50;5056107;28;1052;-35
2023/07/09 00:08:56;;;;;;;;;;;;;;;27.34;36.50;100669.66;5056300;28;1902;-35
2023/07/09 00:11:21;;;;;;;;;;;;;;;27.42;35.72;100671.41;5056382;28;1123;-36
2023/07/09 00:13:47;;;;;;;;;;;;;;;27.73;35.37;100663.13;5056701;28;1075;-35
2023/07/09 00:16:14;;;;;;;;;;;;;;;27.51;35.85;100663.03;5055848;28;1108;-34
2023/07/09 00:18:39;;;;;;;;;;;;;;;27.46;35.48;100659.22;5056013;28;1059;-37
2023/07/09 00:21:05;;;;;;;;;;;;;;;27.67;35.33;100658.44;5056251;28;1266;-34
2023/07/09 00:23:31;;;;;;;;;;;;;;;27.31;35.83;100654.66;5055939;28;1187;-35
2023/07/09 00:25:56;;;;;;;;;;;;;;;27.39;35.43;100653.75;5056332;28;1187;-36
2023/07/09 00:28:22;;;;;;;;;;;;;;;27.70;35.26;100647.28;5056373;28;1972;-36
2023/07/09 00:30:47;;;;;;;;;;;;;;;27.44;35.62;100647.75;5056080;28;1039;-34
2023/07/09 00:33:18;;;;;;;;;;;;;;;27.54;35.42;100645.63;5054845;28;1544;-36
2023/07/09 00:35:46;;;;;;;;;;;;;;;27.57;35.44;100649.78;5056081;28;1143;-35
2023/07/09 00:38:17;;;;;;;;;;;;;;;27.32;35.58;100644.69;5055225;28;1231;-36
2023/07/09 00:41:01;;;;;;;;;;;;;;;27.61;35.24;100645.69;5055036;28;1096;-36
2023/07/09 00:43:36;;;;;;;;;;;;;;;27.59;35.40;100639.66;5056286;28;1132;-37
2023/07/09 00:46:19;;;;;;;;;;;;;;;27.43;35.53;100644.22;5055239;28;892;-39
2023/07/09 00:48:45;;;;;;;;;;;;;;;27.76;34.98;100645.69;5056211;28;1979;-35
2023/07/09 00:51:15;;;;;;;;;;;;;;;27.28;35.92;100640.72;5054568;28;1122;-36
2023/07/09 00:53:45;;;;;;;;;;;;;;;27.53;35.41;100643.09;5054530;28;1076;-36
2023/07/09 00:56:15;;;;;;;;;;;;;;;27.82;34.61;100641.38;5054513;28;1350;-36
2023/07/09 00:58:40;;;;;;;;;;;;;;;27.35;35.91;100650.56;5054565;28;1246;-36
2023/07/09 01:01:08;;;;;;;;;;;;;;;27.63;35.34;100639.06;5055841;28;1031;-36
2023/07/09 01:03:35;;;;;;;;;;;;;;;27.76;35.02;100642.97;5054679;28;1060;-37
2023/07/09 01:06:01;;;;;;;;;;;;;;;27.34;35.86;100642.66;5055525;28;1167;-36
2023/07/09 01:08:30;;;;;;;;;;;;;;;27.63;34.83;100644.47;5054106;28;1918;-36
2023/07/09 01:10:56;;;;;;;;;;;;;;;27.64;35.42;100645.31;5055841;28;905;-34
2023/07/09 01:13:26;;;;;;;;;;;;;;;27.38;35.86;100649.34;5056601;28;960;-35
2023/07/09 01:15:51;;;;;;;;;;;;;;;27.70;34.96;100646.44;5055661;28;1007;-34
2023/07/09 01:18:17;;;;;;;;;;;;;;;27.28;36.38;100646.94;5054346;28;1048;-34
2023/07/09 01:20:43;;;;;;;;;;;;;;;27.28;35.58;100652.31;5055639;28;1134;-35
2023/07/09 01:23:08;;;;;;;;;;;;;;;27.62;35.57;100650.06;5055382;28;1136;-38
2023/07/09 01:25:35;;;;;;;;;;;;;;;27.40;36.03;100658.09;5055963;28;1202;-35
2023/07/09 01:28:01;;;;;;;;;;;;;;;27.41;35.62;100648.16;5041077;28;1975;-34
2023/07/09 01:30:35;;;;;;;;;;;;;;;27.65;35.48;100659.66;5056167;28;1289;-35
2023/07/09 01:33:00;;;;;;;;;;;;;;;27.33;36.08;100655.31;5075046;28;1375;-38
2023/07/09 01:35:26;;;;;;;;;;;;;;;27.30;36.07;100653.00;5059771;28;1043;-35
2023/07/09 01:37:52;;;;;;;;;;;;;;;27.56;35.91;100662.47;5059186;28;1035;-36
2023/07/09 01:40:18;;;;;;;;;;;;;;;27.37;36.30;100663.88;5058438;28;1255;-34
2023/07/09 01:42:44;;;;;;;;;;;;;;;27.44;35.82;100664.81;5059606;28;1131;-35
2023/07/09 01:45:10;;;;;;;;;;;;;;;27.53;35.76;100662.03;5059130;28;1019;-35
2023/07/09 01:47:36;;;;;;;;;;;;;;;27.31;36.84;100675.44;5059085;28;1973;-34
2023/07/09 01:50:02;;;;;;;;;;;;;;;27.50;35.99;100674.03;5059214;28;1061;-35
2023/07/09 01:52:29;;;;;;;;;;;;;;;27.51;36.13;100679.25;5059164;28;1121;-34
2023/07/09 01:54:55;;;;;;;;;;;;;;;27.27;36.49;100677.66;5057923;28;1213;-36
2023/07/09 01:57:24;;;;;;;;;;;;;;;27.56;35.86;100673.25;5057571;28;1311;-36
2023/07/09 01:59:51;;;;;;;;;;;;;;;27.46;36.36;100678.97;5057226;28;1008;-35
2023/07/09 02:02:19;;;;;;;;;;;;;;;27.31;36.47;100678.13;5057709;28;1205;-35
2023/07/09 02:04:46;;;;;;;;;;;;;;;27.65;36.01;100683.97;5058843;28;1520;-35
2023/07/09 02:07:11;;;;;;;;;;;;;;;27.22;36.98;100683.63;5074227;28;1902;-35
2023/07/09 02:09:37;;;;;;;;;;;;;;;27.49;36.40;100680.47;5058625;28;1142;-39
2023/07/09 02:12:03;;;;;;;;;;;;;;;27.46;36.68;100695.16;5058762;28;1051;-34
2023/07/09 02:14:29;;;;;;;;;;;;;;;27.26;36.56;100689.47;5057282;28;1155;-34
2023/07/09 02:16:54;;;;;;;;;;;;;;;27.49;36.28;100689.38;5058751;28;1125;-37
2023/07/09 02:19:20;;;;;;;;;;;;;;;27.43;36.68;100682.03;5057420;28;1782;-37
2023/07/09 02:21:45;;;;;;;;;;;;;;;27.25;36.88;100688.66;5057089;28;1095;-35
2023/07/09 02:24:11;;;;;;;;;;;;;;;27.60;36.38;100692.66;5058959;28;1103;-36
2023/07/09 02:26:36;;;;;;;;;;;;;;;27.39;36.40;100686.97;5058747;28;1120;-36
2023/07/09 02:29:02;;;;;;;;;;;;;;;27.10;36.97;100694.03;5058617;28;1907;-37
2023/07/09 02:31:29;;;;;;;;;;;;;;;27.40;36.76;100698.63;5058171;28;1035;-38
2023/07/09 02:33:55;;;;;;;;;;;;;;;27.30;36.75;100700.75;5058257;28;1144;-38
2023/07/09 02:36:21;;;;;;;;;;;;;;;27.30;36.90;100703.47;5058600;28;1170;-38
2023/07/09 02:38:46;;;;;;;;;;;;;;;27.53;36.09;100707.94;5040350;28;1148;-36
2023/07/09 02:41:12;;;;;;;;;;;;;;;27.20;37.11;100709.13;5057944;28;1051;-36
2023/07/09 02:43:38;;;;;;;;;;;;;;;27.45;36.48;100707.00;5056818;28;1248;-37
2023/07/09 02:46:03;;;;;;;;;;;;;;;27.34;36.60;100712.88;5056567;28;1339;-36
2023/07/09 02:48:29;;;;;;;;;;;;;;;27.23;36.59;100715.00;5056902;28;1927;-38
2023/07/09 02:50:54;;;;;;;;;;;;;;;27.61;36.20;100715.97;5056758;28;1135;-35
2023/07/09 02:53:20;;;;;;;;;;;;;;;27.41;36.53;100723.78;5056950;28;1118;-36
2023/07/09 02:55:46;;;;;;;;;;;;;;;27.17;36.82;100723.84;5058288;28;1095;-38
2023/07/09 02:58:11;;;;;;;;;;;;;;;27.62;36.18;100726.56;5056590;28;1385;-39
2023/07/09 03:00:37;;;;;;;;;;;;;;;27.47;36.62;100729.28;5057574;28;1031;-35
2023/07/09 03:03:02;;;;;;;;;;;;;;;27.50;36.33;100730.75;5056575;28;1087;-36
2023/07/09 03:05:28;;;;;;;;;;;;;;;27.62;35.96;100740.09;5073037;28;1104;-35
2023/07/09 03:07:54;;;;;;;;;;;;;;;27.12;36.84;100737.91;5056263;28;1961;-36
2023/07/09 03:10:19;;;;;;;;;;;;;;;27.56;35.85;100737.28;5089542;28;1215;-36
2023/07/09 03:12:45;;;;;;;;;;;;;;;27.35;36.84;100738.84;5056758;28;1532;-35
2023/07/09 03:15:11;;;;;;;;;;;;;;;27.32;36.89;100740.06;5057180;28;1125;-35
2023/07/09 03:17:36;;;;;;;;;;;;;;;27.64;36.07;100737.19;5089936;28;1226;-47
2023/07/09 03:20:02;;;;;;;;;;;;;;;27.25;34.88;100737.28;5082779;28;1110;-45
2023/07/09 03:22:28;;;;;;;;;;;;;;;26.99;33.99;100733.06;5049572;28;1145;-40
2023/07/09 03:24:53;;;;;;;;;;;;;;;26.83;33.95;100735.91;5057522;28;1222;-41
2023/07/09 03:27:19;;;;;;;;;;;;;;;26.64;34.00;100730.03;5055895;28;1906;-41
2023/07/09 03:29:44;;;;;;;;;;;;;;;26.68;33.40;100734.03;5089412;28;1225;-40
2023/07/09 03:32:10;;;;;;;;;;;;;;;26.90;33.59;100742.28;5056563;28;1154;-39
2023/07/09 03:34:35;;;;;;;;;;;;;;;26.99;33.03;100738.47;5055770;28;1370;-43
2023/07/09 03:37:01;;;;;;;;;;;;;;;26.76;33.46;100736.66;5055781;28;1108;-43
2023/07/09 03:39:26;;;;;;;;;;;;;;;26.82;33.68;100735.09;5052282;28;1354;-42
2023/07/09 03:41:52;;;;;;;;;;;;;;;27.06;33.18;100738.63;5056909;28;1154;-42
2023/07/09 03:44:17;;;;;;;;;;;;;;;26.98;33.53;100734.09;5057002;28;1215;-42
2023/07/09 03:46:43;;;;;;;;;;;;;;;26.90;33.46;100739.59;5056875;28;1159;-45
2023/07/09 03:49:08;;;;;;;;;;;;;;;26.31;32.56;100741.00;5057154;28;1972;-45
2023/07/09 03:51:34;;;;;;;;;;;;;;;25.91;33.42;100737.31;5056396;28;1075;-42
2023/07/09 03:53:59;;;;;;;;;;;;;;;26.14;32.23;100735.69;5055877;28;1158;-44
2023/07/09 03:56:25;;;;;;;;;;;;;;;26.97;31.54;100743.25;5056447;28;1294;-50
2023/07/09 03:58:50;;;;;;;;;;;;;;;27.32;32.05;100771.63;5053901;28;1309;-48
2023/07/09 04:01:16;;;;;;;;;;;;;;;27.48;32.54;100766.06;5055696;28;1030;-49
2023/07/09 04:03:41;;;;;;;;;;;;;;;27.55;32.46;100762.63;5056428;28;1480;-45
2023/07/09 04:06:07;;;;;;;;;;;;;;;26.93;33.56;100746.47;5056257;28;1020;-39
2023/07/09 04:08:32;;;;;;;;;;;;;;;27.02;33.02;100742.72;5056664;28;1914;-44
2023/07/09 04:10:58;;;;;;;;;;;;;;;27.23;32.48;100742.00;5056062;28;1031;-33
2023/07/09 04:13:24;;;;;;;;;;;;;;;27.17;32.80;100740.06;5056684;28;1151;-34
2023/07/09 04:15:49;;;;;;;;;;;;;;;27.20;32.42;100744.22;5056499;28;1171;-36
2023/07/09 04:18:15;;;;;;;;;;;;;;;27.28;33.20;100740.63;5056577;28;1091;-46
2023/07/09 04:20:40;;;;;;;;;;;;;;;27.00;31.66;100742.03;5056119;28;1281;-39
2023/07/09 04:23:06;;;;;;;;;;;;;;;26.67;32.15;100742.28;5055915;28;1129;-33
2023/07/09 04:25:31;;;;;;;;;;;;;;;27.24;32.03;100791.47;5056497;28;1206;-46
2023/07/09 04:27:57;;;;;;;;;;;;;;;27.08;31.85;100736.59;5055642;28;1979;-47
2023/07/09 04:30:22;;;;;;;;;;;;;;;27.23;31.89;100735.75;5056351;28;1122;-37
2023/07/09 04:32:48;;;;;;;;;;;;;;;27.40;32.08;100739.13;5056311;28;1159;-46
2023/07/09 04:35:14;;;;;;;;;;;;;;;27.61;32.16;100730.28;5055668;28;1056;-37
2023/07/09 04:37:39;;;;;;;;;;;;;;;27.50;31.68;100733.47;5056009;28;1079;-35
2023/07/09 04:40:06;;;;;;;;;;;;;;;27.43;32.30;100735.22;5055947;28;1238;-37
2023/07/09 04:42:32;;;;;;;;;;;;;;;27.38;32.80;100733.06;5056184;28;1145;-41
2023/07/09 04:44:57;;;;;;;;;;;;;;;27.55;32.66;100736.44;5055667;28;1204;-37
2023/07/09 04:47:23;;;;;;;;;;;;;;;27.78;32.57;100740.13;5055703;28;1973;-40
2023/07/09 04:49:48;;;;;;;;;;;;;;;27.33;33.43;100735.50;5056039;28;1078;-39
2023/07/09 04:52:15;;;;;;;;;;;;;;;27.62;32.94;100734.69;5056221;28;1215;-38
2023/07/09 04:54:43;;;;;;;;;;;;;;;27.59;33.42;100734.22;5055845;28;1137;-38
2023/07/09 04:57:08;;;;;;;;;;;;;;;27.38;33.94;100733.06;5055890;28;1059;-39
2023/07/09 04:59:34;;;;;;;;;;;;;;;27.73;33.29;100735.25;5056106;28;1238;-39
2023/07/09 05:02:00;;;;;;;;;;;;;;;27.62;33.98;100740.09;5055737;28;1122;-37
2023/07/09 05:04:25;;;;;;;;;;;;;;;27.61;34.03;100737.56;5056024;28;1659;-33
2023/07/09 05:06:51;;;;;;;;;;;;;;;27.84;33.67;100732.06;5060388;28;1042;-37
2023/07/09 05:09:16;;;;;;;;;;;;;;;27.73;34.10;100733.41;5060103;28;1918;-38
2023/07/09 05:11:42;;;;;;;;;;;;;;;27.64;34.14;100734.50;5059512;28;1226;-38
2023/07/09 05:14:07;;;;;;;;;;;;;;;27.93;34.05;100740.06;5060131;28;1066;-37
2023/07/09 05:16:33;;;;;;;;;;;;;;;27.87;34.50;100728.16;5059580;28;1090;-38
2023/07/09 05:18:58;;;;;;;;;;;;;;;27.78;34.47;100730.13;5059896;28;1063;-39
2023/07/09 05:21:24;;;;;;;;;;;;;;;27.98;33.99;100738.47;5059948;28;1279;-39
2023/07/09 05:23:49;;;;;;;;;;;;;;;27.97;34.34;100733.28;5059255;28;1007;-37
2023/07/09 05:26:15;;;;;;;;;;;;;;;27.65;35.00;100733.47;5058487;28;1028;-36
2023/07/09 05:28:40;;;;;;;;;;;;;;;27.84;34.72;100731.25;5059379;28;1955;-36
2023/07/09 05:31:06;;;;;;;;;;;;;;;27.95;34.68;100735.31;5059567;28;1102;-41
2023/07/09 05:33:31;;;;;;;;;;;;;;;27.72;35.00;100739.84;5059719;28;1167;-37
2023/07/09 05:35:57;;;;;;;;;;;;;;;27.98;34.50;100737.63;5059122;28;1063;-38
2023/07/09 05:38:22;;;;;;;;;;;;;;;28.04;34.42;100736.91;5059355;28;1222;-37
2023/07/09 05:40:48;;;;;;;;;;;;;;;27.81;35.30;100737.03;5059342;28;1187;-37
2023/07/09 05:43:14;;;;;;;;;;;;;;;28.06;34.19;100748.34;5058865;28;1226;-37
2023/07/09 05:45:39;;;;;;;;;;;;;;;27.89;35.03;100739.63;5059139;28;1131;-37
2023/07/09 05:48:05;;;;;;;;;;;;;;;27.74;35.36;100743.16;5058711;28;1976;-38
2023/07/09 05:50:32;;;;;;;;;;;;;;;27.91;35.26;100734.84;5059265;28;1126;-39
2023/07/09 05:52:57;;;;;;;;;;;;;;;27.83;35.45;100735.81;5059569;28;1275;-43
2023/07/09 05:55:23;;;;;;;;;;;;;;;27.86;35.58;100740.00;5059041;28;1087;-39
2023/07/09 05:57:48;;;;;;;;;;;;;;;27.91;35.56;100734.84;5059028;28;1288;-39
2023/07/09 06:00:14;;;;;;;;;;;;;;;27.93;35.57;100729.25;5058795;28;1142;-44
2023/07/09 06:02:40;;;;;;;;;;;;;;;28.09;35.42;100739.03;5058918;28;1071;-46
2023/07/09 06:05:10;;;;;;;;;;;;;;;28.12;35.77;100738.66;5059006;28;1155;-43
2023/07/09 06:07:37;;;;;;;;;;;;;;;28.19;35.27;100736.03;5058963;28;1910;-43
2023/07/09 06:10:02;;;;;;;;;;;;;;;28.29;35.29;100733.84;5058768;28;1163;-45
2023/07/09 06:12:28;;;;;;;;;;;;;;;28.39;35.34;100743.53;5058173;28;856;-44
2023/07/09 06:14:53;;;;;;;;;;;;;;;28.36;35.06;100732.06;5058558;28;1135;-38
2023/07/09 06:17:19;;;;;;;;;;;;;;;28.27;35.47;100740.47;5058036;28;1086;-39
2023/07/09 06:19:45;;;;;;;;;;;;;;;28.07;35.78;100733.81;5058664;28;1079;-36
2023/07/09 06:22:10;;;;;;;;;;;;;;;28.06;35.99;100734.81;5058469;28;1147;-41
2023/07/09 06:24:36;;;;;;;;;;;;;;;28.19;35.83;100733.31;5058260;28;1115;-38
2023/07/09 06:27:01;;;;;;;;;;;;;;;28.47;35.71;100725.34;5058398;28;1103;-40
2023/07/09 06:29:27;;;;;;;;;;;;;;;28.34;35.61;100728.72;5057867;28;1979;-38
2023/07/09 06:31:52;;;;;;;;;;;;;;;28.41;35.57;100736.91;5058108;28;1074;-40
2023/07/09 06:34:18;;;;;;;;;;;;;;;28.38;35.64;100729.16;5058481;28;1131;-39
2023/07/09 06:36:43;;;;;;;;;;;;;;;28.38;35.49;100737.28;5057916;28;957;-42
2023/07/09 06:39:09;;;;;;;;;;;;;;;28.50;35.12;100737.63;5058421;28;1123;-42
2023/07/09 06:41:38;;;;;;;;;;;;;;;28.59;35.14;100727.50;5058390;28;1182;-38
2023/07/09 06:44:06;;;;;;;;;;;;;;;28.51;35.61;100727.66;5073756;28;1110;-40
2023/07/09 06:46:31;;;;;;;;;;;;;;;28.62;35.91;100731.69;5057970;28;1115;-44
2023/07/09 06:48:57;;;;;;;;;;;;;;;28.49;35.78;100727.84;5058071;28;1906;-37
2023/07/09 06:51:22;;;;;;;;;;;;;;;28.40;35.81;100720.84;5058518;28;1213;-39
2023/07/09 06:53:50;;;;;;;;;;;;;;;28.18;36.68;100720.81;5058175;28;1304;-40
2023/07/09 06:56:15;;;;;;;;;;;;;;;28.32;36.26;100725.34;5057926;28;1066;-36
2023/07/09 06:58:41;;;;;;;;;;;;;;;28.49;36.10;100722.44;5058411;28;1137;-42
2023/07/09 07:01:07;;;;;;;;;;;;;;;28.58;36.59;100720.41;5057819;28;1001;-47
2023/07/09 07:03:32;;;;;;;;;;;;;;;28.46;36.81;100715.50;5057687;28;1130;-43
2023/07/09 07:05:58;;;;;;;;;;;;;;;28.46;36.39;100712.81;5057626;28;1162;-42
2023/07/09 07:08:24;;;;;;;;;;;;;;;28.18;36.48;100709.97;5057292;28;1969;-39
2023/07/09 07:10:49;;;;;;;;;;;;;;;27.88;34.62;100719.00;5057643;28;1131;-38
2023/07/09 07:13:15;;;;;;;;;;;;;;;28.00;35.23;100711.25;5057431;28;1196;-42
2023/07/09 07:15:40;;;;;;;;;;;;;;;28.18;35.84;100708.13;5073056;28;1199;-43
2023/07/09 07:18:06;;;;;;;;;;;;;;;28.41;35.83;100730.66;5057635;28;1126;-41
2023/07/09 07:20:32;;;;;;;;;;;;;;;28.43;35.77;100712.34;5057128;28;1186;-39
2023/07/09 07:22:57;;;;;;;;;;;;;;;28.53;35.92;100715.59;5057276;28;1020;-42
2023/07/09 07:25:23;;;;;;;;;;;;;;;28.46;36.26;100712.00;5057243;28;1063;-41
2023/07/09 07:27:48;;;;;;;;;;;;;;;28.52;36.26;100699.53;5056825;28;1906;-45
2023/07/09 07:30:14;;;;;;;;;;;;;;;28.42;36.22;100703.41;5057108;28;1051;-40
2023/07/09 07:32:47;;;;;;;;;;;;;;;28.45;36.52;100713.00;5057466;28;1003;-39
2023/07/09 07:35:13;;;;;;;;;;;;;;;28.40;36.19;100707.34;5057546;28;1055;-50
2023/07/09 07:37:39;;;;;;;;;;;;;;;28.53;36.24;100699.34;5057050;28;845;-41
2023/07/09 07:40:05;;;;;;;;;;;;;;;28.39;35.93;100721.91;5057197;28;1138;-43
2023/07/09 07:42:30;;;;;;;;;;;;;;;28.31;36.55;100712.84;5057339;28;1249;-39
2023/07/09 07:44:56;;;;;;;;;;;;;;;28.31;36.33;100712.03;5057029;28;1213;-45
2023/07/09 07:47:21;;;;;;;;;;;;;;;28.41;36.37;100703.63;5057094;28;1146;-38
2023/07/09 07:49:47;;;;;;;;;;;;;;;28.45;36.62;100707.59;5057132;28;1894;-42
2023/07/09 07:52:12;;;;;;;;;;;;;;;28.35;36.46;100714.19;5056463;28;1052;-40
2023/07/09 07:54:38;;;;;;;;;;;;;;;28.41;36.06;100723.38;5056778;28;1051;-38
2023/07/09 07:57:04;;;;;;;;;;;;;;;28.53;35.76;100729.13;5056914;28;1110;-42
2023/07/09 07:59:29;;;;;;;;;;;;;;;28.41;36.28;100725.25;5056926;28;1123;-39
2023/07/09 08:01:55;;;;;;;;;;;;;;;28.46;36.44;100731.75;5056588;28;1043;-42
2023/07/09 08:04:20;;;;;;;;;;;;;;;28.51;36.36;100730.34;5057398;28;1048;-41
2023/07/09 08:06:46;;;;;;;;;;;;;;;28.35;36.42;100738.53;5056581;28;1088;-43
2023/07/09 08:09:11;;;;;;;;;;;;;;;28.52;36.40;100722.03;5056335;28;1976;-44
2023/07/09 08:11:37;;;;;;;;;;;;;;;28.47;36.45;100727.19;5056933;28;1198;-40
2023/07/09 08:14:02;;;;;;;;;;;;;;;28.59;36.23;100724.81;5056722;28;866;-40
2023/07/09 08:16:28;;;;;;;;;;;;;;;28.68;35.96;100731.75;5056542;28;1183;-38
2023/07/09 08:18:54;;;;;;;;;;;;;;;28.40;36.66;100748.75;5056540;28;1071;-41
2023/07/09 08:21:19;;;;;;;;;;;;;;;28.48;36.27;100726.16;5055989;28;1023;-41
2023/07/09 08:23:45;;;;;;;;;;;;;;;28.31;36.79;100723.66;5056624;28;1230;-41
2023/07/09 08:26:11;;;;;;;;;;;;;;;28.42;36.64;100716.94;5055935;28;970;-46
2023/07/09 08:28:37;;;;;;;;;;;;;;;28.36;36.83;100710.44;5055922;28;1901;-43
2023/07/09 08:31:02;;;;;;;;;;;;;;;28.46;37.07;100715.50;5056022;28;1435;-43
2023/07/09 08:33:28;;;;;;;;;;;;;;;28.54;37.08;100713.72;5056390;28;1121;-42
2023/07/09 08:35:53;;;;;;;;;;;;;;;28.40;37.01;100704.63;5056135;28;1189;-40
2023/07/09 08:38:20;;;;;;;;;;;;;;;28.18;35.14;100705.44;5055851;28;977;-40
2023/07/09 08:40:58;;;;;;;;;;;;;;;28.34;35.89;100698.13;5056153;28;1165;-42
2023/07/09 08:43:23;;;;;;;;;;;;;;;28.11;34.81;100705.34;5056281;28;1159;-46
2023/07/09 08:45:57;;;;;;;;;;;;;;;28.04;35.50;100704.44;5055937;28;1055;-46
2023/07/09 08:48:28;;;;;;;;;;;;;;;28.06;36.71;100712.38;5053863;28;1972;-44
2023/07/09 08:50:55;;;;;;;;;;;;;;;28.09;37.28;100709.28;5071466;28;1130;-44
2023/07/09 08:53:34;;;;;;;;;;;;;;;28.03;37.50;100710.88;5071061;28;1071;-45
2023/07/09 08:55:59;;;;;;;;;;;;;;;27.95;38.20;100694.75;5056035;28;1484;-45
2023/07/09 08:58:26;;;;;;;;;;;;;;;28.34;37.68;100709.78;5071300;28;1104;-41
2023/07/09 09:00:55;;;;;;;;;;;;;;;28.20;37.94;100722.31;5071276;28;1067;-43
2023/07/09 09:03:20;;;;;;;;;;;;;;;28.21;36.26;100709.63;5054464;28;1059;-41
2023/07/09 09:05:46;;;;;;;;;;;;;;;28.06;36.25;100739.41;5055697;28;1050;-42
2023/07/09 09:08:27;;;;;;;;;;;;;;;28.20;34.41;100710.63;5056209;28;1906;-42
2023/07/09 09:11:13;;;;;;;;;;;;;;;28.07;35.89;100723.00;5055880;28;1047;-40
2023/07/09 09:13:39;;;;;;;;;;;;;;;28.12;36.22;100744.06;5051513;28;1333;-42
2023/07/09 09:16:06;;;;;;;;;;;;;;;28.04;35.97;100738.75;5055863;28;1150;-42
2023/07/09 09:18:34;;;;;;;;;;;;;;;28.02;35.98;100743.50;5071343;28;1195;-42
2023/07/09 09:21:19;;;;;;;;;;;;;;;28.07;35.05;100739.22;5055613;28;1134;-42
2023/07/09 09:23:48;;;;;;;;;;;;;;;28.27;33.65;100735.91;5055581;28;1129;-41
2023/07/09 09:26:16;;;;;;;;;;;;;;;28.39;33.29;100738.97;5055438;28;1079;-42
2023/07/09 09:28:42;;;;;;;;;;;;;;;28.19;33.11;100733.31;5071209;28;1965;-42
2023/07/09 09:31:09;;;;;;;;;;;;;;;28.20;33.48;100740.38;5055650;28;1151;-41
2023/07/09 09:33:42;;;;;;;;;;;;;;;28.24;32.90;100739.81;5070907;28;1168;-41
2023/07/09 09:36:11;;;;;;;;;;;;;;;28.17;31.96;100714.56;5042672;28;1103;-42
2023/07/09 09:38:37;;;;;;;;;;;;;;;28.25;31.71;100751.47;5070660;28;918;-42
2023/07/09 09:41:02;;;;;;;;;;;;;;;28.09;32.47;100744.44;5055705;28;1055;-41
2023/07/09 09:43:31;;;;;;;;;;;;;;;28.14;30.91;100725.78;5055355;28;1135;-43
2023/07/09 09:45:57;;;;;;;;;;;;;;;28.01;32.69;100749.97;5055597;28;1213;-43
2023/07/09 09:48:32;;;;;;;;;;;;;;;28.16;33.02;100747.22;5053893;28;1898;-42
2023/07/09 09:51:01;;;;;;;;;;;;;;;28.09;34.34;100749.84;5056435;28;1000;-41
2023/07/09 09:53:26;;;;;;;;;;;;;;;28.42;33.01;100754.81;5058553;28;1078;-42
2023/07/09 09:55:52;;;;;;;;;;;;;;;28.25;32.84;100759.59;5075150;28;1171;-42
2023/07/09 09:58:18;;;;;;;;;;;;;;;28.24;32.00;100766.88;5059306;28;1027;-41
2023/07/09 10:00:50;;;;;;;;;;;;;;;28.20;31.08;100756.63;5058979;28;1214;-41
2023/07/09 10:03:15;;;;;;;;;;;;;;;28.25;31.33;100759.59;5058828;28;1031;-42
2023/07/09 10:05:44;;;;;;;;;;;;;;;28.33;31.02;100755.97;5063406;28;1095;-42
2023/07/09 10:08:15;;;;;;;;;;;;;;;28.05;31.41;100757.50;5074345;28;1930;-40
2023/07/09 10:10:41;;;;;;;;;;;;;;;28.28;31.06;100753.81;5074041;28;1134;-41
2023/07/09 10:13:12;;;;;;;;;;;;;;;28.33;31.68;100745.13;5074025;28;1083;-42
2023/07/09 10:15:42;;;;;;;;;;;;;;;28.31;32.42;100749.88;5058589;28;1147;-41
2023/07/09 10:18:27;;;;;;;;;;;;;;;28.29;34.06;100770.88;5074081;28;1123;-41
2023/07/09 10:21:33;;;;;;;;;;;;;;;28.27;33.93;100770.22;5074337;28;1187;-41
2023/07/09 10:24:27;;;;;;;;;;;;;;;28.56;33.77;100773.91;5036569;28;1181;-42
2023/07/09 10:27:07;;;;;;;;;;;;;;;28.61;34.45;100768.75;5036397;28;981;-42
2023/07/09 10:29:33;;;;;;;;;;;;;;;28.59;34.97;100774.34;5043471;28;1894;-42
2023/07/09 10:32:04;;;;;;;;;;;;;;;28.73;34.99;100771.75;5058182;28;1151;-40
2023/07/09 10:34:30;;;;;;;;;;;;;;;28.77;34.99;100769.50;5058057;28;1391;-41
2023/07/09 10:36:55;;;;;;;;;;;;;;;28.74;35.33;100765.34;5058015;28;1048;-40
2023/07/09 10:39:26;;;;;;;;;;;;;;;28.65;35.25;100764.63;5058495;28;1142;-42
2023/07/09 10:41:52;;;;;;;;;;;;;;;28.55;35.99;100755.97;5073920;28;1151;-41
2023/07/09 10:44:22;;;;;;;;;;;;;;;28.64;35.83;100762.13;5073732;28;1079;-42
2023/07/09 10:46:49;;;;;;;;;;;;;;;28.77;35.80;100753.28;5073684;28;1039;-41
2023/07/09 10:49:14;;;;;;;;;;;;;;;28.64;36.35;100756.69;5073622;28;1901;-42
2023/07/09 10:51:41;;;;;;;;;;;;;;;28.71;36.32;100758.44;5057961;28;1050;-42
2023/07/09 10:54:26;;;;;;;;;;;;;;;28.68;36.24;100752.56;5073565;28;1131;-42
2023/07/09 10:56:53;;;;;;;;;;;;;;;28.80;36.02;100753.72;5057861;28;1023;-40
2023/07/09 10:59:35;;;;;;;;;;;;;;;28.58;36.79;100761.00;5073339;28;1130;-41
2023/07/09 11:02:26;;;;;;;;;;;;;;;28.64;36.66;100740.47;5057559;28;1126;-42
2023/07/09 11:04:55;;;;;;;;;;;;;;;28.58;36.96;100761.00;5056542;28;1106;-42
2023/07/09 11:07:26;;;;;;;;;;;;;;;28.71;36.73;100750.31;5057118;28;1074;-42
2023/07/09 11:09:54;;;;;;;;;;;;;;;28.67;36.87;100740.06;5057487;28;1914;-40
2023/07/09 11:12:26;;;;;;;;;;;;;;;28.81;36.59;100743.75;5056251;28;1147;-42
2023/07/09 11:15:12;;;;;;;;;;;;;;;28.57;37.23;100753.94;5057238;28;1222;-42
2023/07/09 11:17:39;;;;;;;;;;;;;;;28.72;36.85;100752.00;5056849;28;1186;-43
2023/07/09 11:20:08;;;;;;;;;;;;;;;28.55;36.84;100764.09;5057734;28;1170;-41
2023/07/09 11:22:37;;;;;;;;;;;;;;;28.65;36.57;100766.47;5057537;28;1039;-41
2023/07/09 11:25:06;;;;;;;;;;;;;;;28.66;36.71;100765.47;5057927;28;1142;-41
2023/07/09 11:27:32;;;;;;;;;;;;;;;28.65;36.60;100767.34;5056796;28;1964;-41
2023/07/09 11:29:58;;;;;;;;;;;;;;;28.65;36.96;100766.47;5057165;28;1107;-43
2023/07/09 11:32:24;;;;;;;;;;;;;;;28.89;36.70;100769.84;5057441;28;1154;-40
2023/07/09 11:34:49;;;;;;;;;;;;;;;28.64;37.04;100764.81;5072805;28;1063;-41
2023/07/09 11:37:15;;;;;;;;;;;;;;;28.50;37.88;100764.69;5057142;28;1159;-41
2023/07/09 11:39:40;;;;;;;;;;;;;;;28.50;37.68;100753.84;5056650;28;1190;-41
2023/07/09 11:42:25;;;;;;;;;;;;;;;28.51;37.32;100763.63;5057352;28;1098;-42
2023/07/09 11:44:51;;;;;;;;;;;;;;;28.43;37.21;100772.72;5057061;28;1063;-42
2023/07/09 11:47:19;;;;;;;;;;;;;;;28.34;37.25;100758.47;5057079;28;1091;-42
2023/07/09 11:50:00;;;;;;;;;;;;;;;28.33;37.22;100758.66;5056742;28;1910;-43
2023/07/09 11:52:28;;;;;;;;;;;;;;;28.34;37.25;100761.19;5044242;28;1119;-41
2023/07/09 11:54:54;;;;;;;;;;;;;;;28.30;37.10;100757.16;5056630;28;1046;-42
2023/07/09 11:57:19;;;;;;;;;;;;;;;28.43;37.15;100745.66;5056462;28;1110;-41
2023/07/09 11:59:45;;;;;;;;;;;;;;;28.40;37.22;100747.91;5072444;28;1150;-43
2023/07/09 12:02:19;;;;;;;;;;;;;;;28.45;37.25;100757.16;5056504;28;1026;-42
2023/07/09 12:04:47;;;;;;;;;;;;;;;28.44;36.93;100744.66;5056749;28;1057;-42
2023/07/09 12:07:13;;;;;;;;;;;;;;;28.34;37.30;100741.41;5072274;28;1123;-41
2023/07/09 12:09:39;;;;;;;;;;;;;;;28.38;37.37;100748.09;5071757;28;2009;-42
2023/07/09 12:12:15;;;;;;;;;;;;;;;28.33;37.37;100753.25;5056394;28;1133;-42
2023/07/09 12:14:42;;;;;;;;;;;;;;;28.44;37.23;100746.50;5070856;28;1083;-41
2023/07/09 12:17:07;;;;;;;;;;;;;;;28.41;37.25;100742.31;5056590;28;1058;-41
2023/07/09 12:19:33;;;;;;;;;;;;;;;28.63;36.72;100749.63;5056186;28;1035;-41
2023/07/09 12:21:58;;;;;;;;;;;;;;;28.63;36.78;100760.44;5056231;28;1195;-40
2023/07/09 12:24:27;;;;;;;;;;;;;;;28.63;36.90;100753.16;5056111;28;1425;-42
2023/07/09 12:26:53;;;;;;;;;;;;;;;28.57;36.77;100753.94;5056213;28;1028;-41
2023/07/09 12:29:19;;;;;;;;;;;;;;;28.50;37.20;100747.59;5056234;28;1915;-41
2023/07/09 12:31:44;;;;;;;;;;;;;;;28.56;37.09;100746.84;5056469;28;1059;-41
2023/07/09 12:34:11;;;;;;;;;;;;;;;28.48;37.31;100745.94;5056378;28;1071;-41
2023/07/09 12:36:37;;;;;;;;;;;;;;;28.53;37.36;100734.53;5056384;28;1059;-41
2023/07/09 12:39:02;;;;;;;;;;;;;;;28.51;37.68;100739.28;5055670;28;1147;-40
2023/07/09 12:41:29;;;;;;;;;;;;;;;28.56;37.24;100736.03;5071439;28;1212;-41
2023/07/09 12:43:55;;;;;;;;;;;;;;;28.55;37.60;100729.75;5071291;28;1132;-41
2023/07/09 12:46:21;;;;;;;;;;;;;;;28.44;37.87;100738.41;5071907;28;1168;-41
2023/07/09 12:48:47;;;;;;;;;;;;;;;28.78;36.79;100730.59;5055654;28;1906;-41